createdAt,value
2022-12-24T00:05:27.280Z,14.34
2022-12-24T00:10:51.910Z,14.58
2022-12-24T00:16:16.116Z,14.67
2022-12-24T00:21:39.708Z,14.74
2022-12-24T00:27:21.308Z,14.59
2022-12-24T00:33:02.634Z,14.53
2022-12-24T00:38:43.520Z,14.67
2022-12-24T00:44:10.398Z,14.89
2022-12-24T00:49:34.873Z,14.36
2022-12-24T00:54:58.720Z,12.29
2022-12-24T01:00:22.470Z,10.87
2022-12-24T01:05:46.404Z,9.85
2022-12-24T01:11:10.417Z,9.04
2022-12-24T01:16:34.220Z,9.59
2022-12-24T01:21:58.566Z,11.54
2022-12-24T01:27:22.199Z,12.23
2022-12-24T01:32:46.538Z,12.55
2022-12-24T01:38:12.076Z,12.96
2022-12-24T01:43:35.394Z,13.17
2022-12-24T01:49:03.232Z,13.38
2022-12-24T01:54:32.419Z,13.61
2022-12-24T01:59:58.137Z,13.45
2022-12-24T02:05:51.591Z,13.31
2022-12-24T02:11:16.218Z,13.32
2022-12-24T02:16:42.857Z,13.20
2022-12-24T02:22:30.531Z,13.27
2022-12-24T02:28:04.030Z,13.20
2022-12-24T02:33:27.760Z,13.11
2022-12-24T02:39:00.970Z,12.95
2022-12-24T02:44:24.969Z,12.91
2022-12-24T02:49:49.357Z,13.00
2022-12-24T02:55:13.228Z,13.18
2022-12-24T03:00:48.601Z,13.28
2022-12-24T03:06:20.323Z,13.27
2022-12-24T03:11:46.412Z,13.27
2022-12-24T03:17:10.650Z,13.24
2022-12-24T03:22:34.713Z,13.31
2022-12-24T03:27:59.447Z,13.37
2022-12-24T03:33:23.656Z,13.47
2022-12-24T03:38:47.865Z,13.49
2022-12-24T03:44:12.178Z,13.38
2022-12-24T03:49:35.863Z,13.44
2022-12-24T03:54:59.905Z,13.52
2022-12-24T04:00:23.989Z,13.53
2022-12-24T04:05:47.945Z,13.59
2022-12-24T04:11:16.157Z,13.65
2022-12-24T04:16:40.330Z,13.61
2022-12-24T04:22:03.825Z,13.66
2022-12-24T04:27:30.577Z,13.71
2022-12-24T04:32:54.962Z,13.67
2022-12-24T04:38:18.982Z,13.73
2022-12-24T04:43:42.580Z,13.67
2022-12-24T04:49:06.801Z,13.62
2022-12-24T04:54:30.519Z,13.53
2022-12-24T04:59:54.213Z,13.54
2022-12-24T05:05:18.657Z,13.59
2022-12-24T05:10:42.836Z,13.57
2022-12-24T05:16:06.626Z,13.52
2022-12-24T05:21:30.247Z,13.41
2022-12-24T05:26:55.003Z,13.34
2022-12-24T05:32:18.737Z,13.36
2022-12-24T05:37:42.569Z,13.26
2022-12-24T05:43:06.905Z,13.27
2022-12-24T05:48:30.691Z,13.27
2022-12-24T05:53:55.161Z,13.24
2022-12-24T05:59:19.148Z,13.18
2022-12-24T06:04:42.355Z,13.19
2022-12-24T06:10:08.126Z,13.20
2022-12-24T06:15:32.415Z,13.20
2022-12-24T06:20:57.092Z,13.16
2022-12-24T06:26:21.956Z,13.17
2022-12-24T06:31:45.817Z,13.11
2022-12-24T06:37:16.809Z,13.10
2022-12-24T06:42:40.733Z,13.23
2022-12-24T06:48:05.233Z,13.27
2022-12-24T06:53:28.691Z,13.30
2022-12-24T06:58:52.484Z,13.29
2022-12-24T07:04:20.453Z,13.25
2022-12-24T07:09:44.643Z,13.14
2022-12-24T07:15:09.770Z,13.13
2022-12-24T07:20:34.695Z,13.07
2022-12-24T07:26:02.539Z,13.04
2022-12-24T07:31:27.356Z,13.02
2022-12-24T07:36:53.825Z,13.03
2022-12-24T07:42:17.285Z,13.04
2022-12-24T07:47:41.896Z,13.07
2022-12-24T07:53:06.255Z,13.13
2022-12-24T07:58:29.795Z,13.18
2022-12-24T08:03:55.059Z,13.11
2022-12-24T08:09:18.625Z,13.07
2022-12-24T08:14:43.093Z,13.06
2022-12-24T08:20:10.099Z,12.97
2022-12-24T08:25:37.984Z,12.97
2022-12-24T08:31:04.304Z,13.04
2022-12-24T08:36:36.553Z,13.20
2022-12-24T08:42:03.013Z,13.19
2022-12-24T08:47:30.791Z,13.16
2022-12-24T08:52:59.817Z,13.07
2022-12-24T08:58:31.037Z,13.05
2022-12-24T09:03:58.177Z,13.04
2022-12-24T09:09:24.240Z,13.08
2022-12-24T09:14:48.216Z,13.06
2022-12-24T09:20:12.586Z,12.98
2022-12-24T09:25:36.245Z,12.98
2022-12-24T09:31:01.285Z,13.00
2022-12-24T09:36:24.804Z,13.17
2022-12-24T09:42:07.366Z,13.29
2022-12-24T09:47:32.193Z,13.34
2022-12-24T09:52:56.583Z,13.44
2022-12-24T09:58:40.766Z,13.50
2022-12-24T10:04:06.056Z,13.45
2022-12-24T10:09:32.669Z,13.37
2022-12-24T10:15:02.769Z,13.33
2022-12-24T10:20:26.734Z,13.29
2022-12-24T10:25:55.636Z,13.43
2022-12-24T10:31:41.081Z,13.40
2022-12-24T10:37:06.052Z,13.44
2022-12-24T10:42:35.545Z,13.50
2022-12-24T10:48:02.215Z,13.57
2022-12-24T10:53:28.497Z,13.44
2022-12-24T10:58:58.304Z,13.49
2022-12-24T11:04:28.746Z,13.46
2022-12-24T11:10:00.201Z,13.48
2022-12-24T11:15:28.539Z,13.41
2022-12-24T11:20:56.015Z,13.47
2022-12-24T11:26:26.290Z,13.62
2022-12-24T11:31:53.642Z,13.79
2022-12-24T11:37:26.323Z,14.07
2022-12-24T11:42:57.425Z,14.07
2022-12-24T11:48:34.040Z,14.06
2022-12-24T11:54:17.713Z,13.98
2022-12-24T11:59:46.480Z,14.01
2022-12-24T12:05:15.432Z,14.07
2022-12-24T12:10:43.947Z,12.85
2022-12-24T12:16:20.194Z,13.17
2022-12-24T12:21:50.515Z,13.54
2022-12-24T12:27:20.919Z,13.57
2022-12-24T12:32:49.971Z,13.72
2022-12-24T12:38:24.154Z,13.73
2022-12-24T12:43:51.746Z,13.03
2022-12-24T12:49:21.548Z,12.57
2022-12-24T12:54:48.229Z,13.62
2022-12-24T13:00:16.302Z,13.95
2022-12-24T13:05:42.830Z,12.72
2022-12-24T13:11:16.906Z,12.87
2022-12-24T13:16:53.097Z,13.58
2022-12-24T13:22:23.228Z,12.91
2022-12-24T13:27:50.382Z,12.40
2022-12-24T13:33:18.179Z,13.38
2022-12-24T13:39:00.843Z,12.73
2022-12-24T13:44:33.741Z,12.25
2022-12-24T13:50:01.961Z,13.27
2022-12-24T13:55:31.482Z,13.05
2022-12-24T14:01:06.172Z,11.97
2022-12-24T14:06:35.524Z,13.00
2022-12-24T14:12:04.728Z,13.04
2022-12-24T14:17:33.740Z,11.94
2022-12-24T14:23:01.890Z,12.91
2022-12-24T14:28:38.528Z,13.25
2022-12-24T14:34:12.890Z,11.81
2022-12-24T14:39:39.268Z,12.54
2022-12-24T14:45:09.941Z,13.32
2022-12-24T14:50:41.903Z,12.22
2022-12-24T14:56:27.150Z,11.91
2022-12-24T15:01:57.765Z,13.18
2022-12-24T15:07:25.066Z,13.35
2022-12-24T15:12:52.898Z,11.96
2022-12-24T15:18:21.069Z,12.63
2022-12-24T15:23:52.108Z,13.21
2022-12-24T15:29:30.036Z,13.35
2022-12-24T15:35:02.011Z,13.29
2022-12-24T15:40:30.285Z,13.32
2022-12-24T15:45:59.144Z,13.41
2022-12-24T15:51:33.568Z,13.49
2022-12-24T15:57:14.128Z,13.64
2022-12-24T16:02:44.810Z,13.72
2022-12-24T16:08:18.305Z,13.56
2022-12-24T16:13:56.049Z,13.54
2022-12-24T16:19:24.596Z,13.47
2022-12-24T16:24:53.056Z,13.43
2022-12-24T16:30:20.661Z,13.40
2022-12-24T16:35:49.186Z,13.55
2022-12-24T16:41:20.070Z,13.67
2022-12-24T16:46:47.880Z,13.67
2022-12-24T16:52:18.996Z,13.55
2022-12-24T16:57:46.641Z,13.50
2022-12-24T17:03:14.943Z,13.44
2022-12-24T17:08:43.275Z,13.37
2022-12-24T17:14:20.598Z,13.27
2022-12-24T17:19:48.095Z,13.09
2022-12-24T17:25:15.058Z,12.87
2022-12-24T17:30:49.900Z,12.76
2022-12-24T17:36:18.398Z,12.79
2022-12-24T17:41:48.408Z,12.75
2022-12-24T17:47:16.901Z,12.70
2022-12-24T17:52:43.219Z,12.65
2022-12-24T17:58:09.709Z,12.59
2022-12-24T18:03:35.280Z,12.54
2022-12-24T18:09:02.940Z,12.44
2022-12-24T18:14:31.773Z,12.47
2022-12-24T18:20:00.856Z,12.47
2022-12-24T18:25:31.298Z,12.50
2022-12-24T18:31:07.899Z,12.44
2022-12-24T18:36:51.284Z,12.44
2022-12-24T18:42:27.566Z,12.54
2022-12-24T18:47:56.593Z,12.54
2022-12-24T18:53:25.332Z,12.51
2022-12-24T18:58:51.816Z,12.46
2022-12-24T19:04:26.574Z,12.33
2022-12-24T19:09:57.347Z,12.30
2022-12-24T19:15:35.660Z,12.32
2022-12-24T19:21:18.446Z,12.31
2022-12-24T19:26:57.689Z,12.25
2022-12-24T19:32:24.702Z,12.21
2022-12-24T19:37:51.691Z,12.11
2022-12-24T19:43:17.602Z,12.08
2022-12-24T19:48:44.426Z,12.16
2022-12-24T19:54:29.036Z,12.15
2022-12-24T20:00:11.311Z,12.14
2022-12-24T20:05:44.553Z,12.18
2022-12-24T20:11:11.815Z,12.13
2022-12-24T20:16:36.869Z,12.06
2022-12-24T20:22:04.261Z,12.06
2022-12-24T20:27:31.844Z,12.12
2022-12-24T20:32:59.858Z,12.24
2022-12-24T20:38:25.941Z,12.14
2022-12-24T20:43:55.883Z,12.04
2022-12-24T20:49:24.100Z,11.97
2022-12-24T20:54:51.816Z,11.91
2022-12-24T21:00:23.832Z,11.81
2022-12-24T21:05:51.999Z,11.69
2022-12-24T21:11:35.217Z,11.75
2022-12-24T21:17:01.252Z,12.03
2022-12-24T21:22:27.845Z,12.22
2022-12-24T21:27:53.608Z,12.40
2022-12-24T21:33:20.226Z,12.41
2022-12-24T21:38:49.861Z,12.41
2022-12-24T21:44:15.213Z,12.44
2022-12-24T21:49:58.114Z,12.55
2022-12-24T21:55:25.563Z,12.98
2022-12-24T22:00:53.021Z,12.85
2022-12-24T22:06:33.592Z,12.58
2022-12-24T22:11:59.513Z,12.42
2022-12-24T22:17:25.653Z,12.21
2022-12-24T22:22:52.151Z,12.12
2022-12-24T22:28:18.152Z,12.18
2022-12-24T22:33:46.305Z,12.22
2022-12-24T22:39:14.810Z,12.26
2022-12-24T22:44:42.029Z,12.20
2022-12-24T22:50:08.725Z,12.05
2022-12-24T22:55:35.010Z,11.92
2022-12-24T23:01:01.966Z,11.77
2022-12-24T23:06:28.452Z,11.66
2022-12-24T23:11:57.917Z,11.54
2022-12-24T23:17:25.281Z,11.53
2022-12-24T23:22:50.660Z,11.57
2022-12-24T23:28:15.186Z,11.58
2022-12-24T23:33:39.893Z,11.56
2022-12-24T23:39:05.041Z,11.53
2022-12-24T23:44:32.793Z,11.50
2022-12-24T23:50:02.986Z,11.46
2022-12-24T23:55:29.312Z,11.55
